Roaring Gap, North Carolina
Current Conditions -  °F | °C
As of 5:35 PM on Sunday 23 Nov 2014 (Local Time) from KUKF Reporting Station
Moderate Rain Moderate Rain  
Wind Chill:   Ceiling: 300
Heat Index:   Visibility: 1mi
Dew Point:   Wind: 0mph
Humidity: 100%   Direction: NA
Pressure: 29.96"   Gusts: NA
Location:  36.4°N, 80.98°W
Report Text: KUKF 232235Z AUTO 00000KT 1SM RA OVC003 05/05 A2996 RMK AO2 P0019
Loading
Personal Weather Stations






























Interactive Weather Map New forecast layout! Learn more

10-Day Weather Forecast

Advertisements
Track Severe Weather on mobile